createdAt,value
2022-10-17T00:00:00.196Z,12.75
2022-10-17T00:03:02.678Z,12.00
2022-10-17T00:06:08.269Z,12.77
2022-10-17T00:09:10.409Z,13.15
2022-10-17T00:12:12.738Z,12.52
2022-10-17T00:15:17.141Z,11.93
2022-10-17T00:18:19.498Z,12.25
2022-10-17T00:21:22.977Z,12.05
2022-10-17T00:24:25.381Z,12.30
2022-10-17T00:27:27.638Z,11.82
2022-10-17T00:30:30.304Z,11.70
2022-10-17T00:33:33.549Z,11.70
2022-10-17T00:36:35.935Z,11.48
2022-10-17T00:39:38.598Z,11.70
2022-10-17T00:42:40.957Z,12.15
2022-10-17T00:45:43.046Z,11.32
2022-10-17T00:48:49.998Z,11.50
2022-10-17T00:51:58.878Z,11.57
2022-10-17T00:55:18.014Z,11.73
2022-10-17T00:58:20.999Z,10.82
2022-10-17T01:01:23.676Z,11.60
2022-10-17T01:04:25.944Z,12.25
2022-10-17T01:07:33.162Z,12.05
2022-10-17T01:11:09.294Z,12.23
2022-10-17T01:14:20.738Z,12.25
2022-10-17T01:17:50.695Z,12.05
2022-10-17T01:21:21.363Z,11.70
2022-10-17T01:24:35.816Z,11.85
2022-10-17T01:28:00.421Z,11.98
2022-10-17T01:31:08.277Z,11.00
2022-10-17T01:34:14.422Z,12.00
2022-10-17T01:37:31.580Z,11.75
2022-10-17T01:40:42.927Z,11.50
2022-10-17T01:43:52.816Z,11.73
2022-10-17T01:47:03.437Z,11.73
2022-10-17T01:50:18.140Z,12.27
2022-10-17T01:53:37.551Z,11.55
2022-10-17T01:56:42.302Z,11.88
2022-10-17T01:59:49.558Z,12.05
2022-10-17T02:03:04.583Z,12.40
2022-10-17T02:06:07.774Z,12.80
2022-10-17T02:09:23.249Z,11.77
2022-10-17T02:12:44.847Z,11.60
2022-10-17T02:16:14.827Z,11.23
2022-10-17T02:19:24.048Z,11.73
2022-10-17T02:22:43.930Z,12.57
2022-10-17T02:25:59.765Z,11.88
2022-10-17T02:29:17.606Z,12.32
2022-10-17T02:32:52.094Z,11.75
2022-10-17T02:36:00.429Z,11.32
2022-10-17T02:39:05.611Z,11.27
2022-10-17T02:42:11.325Z,11.27
2022-10-17T02:45:15.643Z,11.70
2022-10-17T02:48:38.697Z,11.77
2022-10-17T02:51:52.922Z,10.88
2022-10-17T02:55:01.102Z,10.52
2022-10-17T02:58:12.078Z,11.20
2022-10-17T03:01:15.651Z,10.90
2022-10-17T03:04:19.518Z,11.07
2022-10-17T03:07:21.708Z,11.23
2022-10-17T03:10:24.123Z,10.77
2022-10-17T03:13:26.386Z,11.12
2022-10-17T03:16:28.942Z,11.15
2022-10-17T03:19:31.357Z,11.57
2022-10-17T03:22:34.050Z,11.75
2022-10-17T03:25:36.924Z,12.23
2022-10-17T03:28:40.797Z,11.65
2022-10-17T03:31:42.969Z,12.75
2022-10-17T03:34:45.797Z,13.30
2022-10-17T03:37:48.039Z,13.30
2022-10-17T03:40:56.880Z,13.25
2022-10-17T03:43:59.050Z,13.23
2022-10-17T03:47:02.435Z,13.75
2022-10-17T03:50:05.938Z,13.73
2022-10-17T03:53:08.678Z,12.73
2022-10-17T03:56:29.087Z,13.82
2022-10-17T03:59:32.342Z,13.32
2022-10-17T04:02:35.245Z,13.90
2022-10-17T04:05:37.627Z,13.45
2022-10-17T04:08:40.223Z,14.23
2022-10-17T04:11:43.078Z,13.80
2022-10-17T04:14:45.226Z,14.18
2022-10-17T04:17:49.568Z,14.40
2022-10-17T04:20:52.324Z,13.90
2022-10-17T04:23:56.106Z,15.85
2022-10-17T04:27:01.064Z,15.32
2022-10-17T04:30:03.866Z,15.38
2022-10-17T04:33:06.333Z,15.80
2022-10-17T04:36:14.096Z,15.95
2022-10-17T04:39:16.282Z,15.20
2022-10-17T04:42:18.707Z,16.00
2022-10-17T04:45:21.147Z,15.48
2022-10-17T04:48:24.498Z,14.93
2022-10-17T04:51:26.885Z,16.17
2022-10-17T04:54:31.657Z,15.60
2022-10-17T04:57:35.684Z,15.02
2022-10-17T05:00:38.775Z,15.38
2022-10-17T05:03:41.064Z,16.75
2022-10-17T05:06:43.430Z,16.02
2022-10-17T05:09:46.716Z,17.02
2022-10-17T05:12:50.308Z,16.52
2022-10-17T05:15:53.191Z,15.75
2022-10-17T05:18:57.844Z,16.10
2022-10-17T05:22:02.352Z,15.98
2022-10-17T05:25:05.204Z,15.93
2022-10-17T05:28:07.273Z,16.95
2022-10-17T05:31:11.631Z,16.45
2022-10-17T05:34:14.158Z,17.50
2022-10-17T05:37:16.791Z,16.60
2022-10-17T05:40:20.699Z,17.12
2022-10-17T05:43:26.962Z,15.35
2022-10-17T05:46:29.152Z,16.95
2022-10-17T05:49:44.707Z,15.32
2022-10-17T05:52:55.280Z,16.95
2022-10-17T05:56:03.110Z,16.00
2022-10-17T05:59:06.135Z,16.58
2022-10-17T06:02:12.185Z,16.70
2022-10-17T06:05:15.421Z,16.70
2022-10-17T06:08:19.907Z,16.62
2022-10-17T06:11:25.880Z,16.27
2022-10-17T06:14:28.279Z,17.20
2022-10-17T06:17:31.056Z,16.25
2022-10-17T06:20:33.273Z,16.10
2022-10-17T06:23:36.101Z,17.23
2022-10-17T06:26:38.478Z,16.62
2022-10-17T06:29:41.848Z,16.65
2022-10-17T06:32:44.476Z,16.45
2022-10-17T06:35:54.841Z,17.00
2022-10-17T06:38:57.280Z,15.10
2022-10-17T06:42:00.891Z,16.55
2022-10-17T06:45:08.513Z,15.57
2022-10-17T06:48:11.042Z,15.95
2022-10-17T06:51:14.385Z,16.27
2022-10-17T06:54:18.002Z,15.45
2022-10-17T06:57:20.591Z,16.17
2022-10-17T07:00:23.688Z,15.07
2022-10-17T07:03:26.437Z,15.85
2022-10-17T07:06:28.895Z,16.17
2022-10-17T07:09:32.864Z,16.45
2022-10-17T07:12:35.748Z,17.17
2022-10-17T07:15:38.787Z,16.33
2022-10-17T07:18:42.111Z,16.08
2022-10-17T07:21:44.235Z,16.37
2022-10-17T07:24:46.804Z,16.77
2022-10-17T07:27:50.540Z,16.27
2022-10-17T07:30:54.462Z,15.82
2022-10-17T07:33:58.965Z,16.45
2022-10-17T07:37:02.097Z,17.17
2022-10-17T07:40:06.581Z,16.35
2022-10-17T07:43:09.188Z,15.77
2022-10-17T07:46:12.331Z,16.35
2022-10-17T07:49:14.937Z,15.70
2022-10-17T07:52:17.333Z,13.70
2022-10-17T07:55:20.254Z,13.15
2022-10-17T07:58:22.333Z,14.32
2022-10-17T08:01:25.835Z,13.43
2022-10-17T08:04:29.019Z,13.62
2022-10-17T08:07:31.525Z,13.70
2022-10-17T08:10:33.937Z,14.68
2022-10-17T08:13:36.884Z,14.48
2022-10-17T08:16:40.362Z,13.40
2022-10-17T08:19:42.522Z,13.00
2022-10-17T08:22:52.049Z,13.18
2022-10-17T08:25:54.177Z,13.07
2022-10-17T08:28:56.928Z,13.10
2022-10-17T08:32:01.444Z,13.57
2022-10-17T08:35:04.976Z,12.88
2022-10-17T08:38:09.038Z,12.52
2022-10-17T08:41:23.997Z,12.70
2022-10-17T08:44:38.303Z,12.30
2022-10-17T08:47:51.964Z,12.50
2022-10-17T08:50:58.087Z,13.55
2022-10-17T08:54:16.801Z,13.23
2022-10-17T08:57:39.604Z,12.88
2022-10-17T09:01:00.832Z,12.82
2022-10-17T09:07:17.125Z,12.20
2022-10-17T09:10:44.819Z,12.82
2022-10-17T09:13:54.479Z,13.05
2022-10-17T09:17:08.774Z,12.27
2022-10-17T09:20:21.341Z,11.65
2022-10-17T09:23:31.171Z,11.20
2022-10-17T09:26:33.592Z,11.45
2022-10-17T09:29:40.174Z,10.80
2022-10-17T09:32:47.616Z,10.80
2022-10-17T09:35:51.003Z,9.52
2022-10-17T09:38:59.010Z,9.00
2022-10-17T09:42:02.906Z,9.68
2022-10-17T09:45:26.024Z,9.15
2022-10-17T09:48:35.063Z,9.77
2022-10-17T09:51:38.788Z,9.77
2022-10-17T09:54:51.632Z,9.02
2022-10-17T09:57:59.696Z,8.50
2022-10-17T10:01:23.682Z,8.23
2022-10-17T10:04:30.200Z,8.18
2022-10-17T10:07:38.806Z,8.50
2022-10-17T10:10:43.269Z,8.05
2022-10-17T10:13:48.423Z,7.68
2022-10-17T10:16:53.761Z,7.47
2022-10-17T10:19:56.349Z,7.30
2022-10-17T10:23:06.270Z,7.00
2022-10-17T10:26:24.497Z,7.12
2022-10-17T10:29:50.823Z,7.25
2022-10-17T10:32:52.986Z,7.12
2022-10-17T10:36:01.987Z,6.78
2022-10-17T10:39:06.005Z,6.32
2022-10-17T10:42:19.892Z,6.07
2022-10-17T10:45:48.027Z,5.68
2022-10-17T10:48:59.670Z,5.60
2022-10-17T10:52:04.290Z,5.37
2022-10-17T10:55:29.618Z,5.45
2022-10-17T10:58:54.119Z,4.97
2022-10-17T11:02:15.448Z,5.78
2022-10-17T11:05:42.347Z,5.28
2022-10-17T11:08:57.423Z,5.18
2022-10-17T11:12:11.839Z,5.12
2022-10-17T11:15:25.232Z,5.00
2022-10-17T11:19:13.685Z,5.15
2022-10-17T11:22:26.673Z,4.95
2022-10-17T11:25:34.544Z,5.10
2022-10-17T11:28:37.487Z,4.90
2022-10-17T11:31:47.983Z,5.28
2022-10-17T11:34:56.908Z,4.68
2022-10-17T11:38:21.156Z,4.60
2022-10-17T11:41:37.504Z,4.93
2022-10-17T11:44:41.399Z,4.55
2022-10-17T11:47:54.232Z,4.72
2022-10-17T11:54:56.153Z,5.28
2022-10-17T11:58:19.854Z,5.30
2022-10-17T12:01:54.850Z,5.45
2022-10-17T12:05:10.092Z,4.53
2022-10-17T12:08:35.164Z,5.37
2022-10-17T12:11:56.911Z,4.65
2022-10-17T12:15:24.331Z,4.47
2022-10-17T12:18:29.883Z,4.90
2022-10-17T12:21:56.763Z,4.47
2022-10-17T12:25:01.654Z,4.80
2022-10-17T12:28:10.539Z,5.20
2022-10-17T12:31:15.970Z,4.70
2022-10-17T12:34:22.330Z,4.70
2022-10-17T12:37:42.747Z,4.45
2022-10-17T12:40:49.009Z,4.90
2022-10-17T12:43:53.910Z,4.47
2022-10-17T12:47:11.127Z,4.03
2022-10-17T12:51:17.681Z,4.10
2022-10-17T12:54:24.039Z,4.37
2022-10-17T12:57:51.618Z,4.03
2022-10-17T13:01:22.496Z,4.07
2022-10-17T13:04:20.063Z,4.25
2022-10-17T13:07:23.265Z,4.30
2022-10-17T13:10:29.016Z,4.03
2022-10-17T13:13:33.777Z,4.47
2022-10-17T13:16:51.033Z,4.15
2022-10-17T13:19:53.828Z,4.57
2022-10-17T13:23:00.054Z,4.10
2022-10-17T13:26:16.454Z,3.95
2022-10-17T13:29:21.167Z,4.00
2022-10-17T13:32:25.782Z,3.87
2022-10-17T13:39:12.526Z,4.57
2022-10-17T13:42:27.840Z,4.32
2022-10-17T13:45:36.851Z,4.15
2022-10-17T13:48:39.312Z,4.53
2022-10-17T13:51:47.015Z,3.70
2022-10-17T13:54:51.329Z,4.00
2022-10-17T13:57:53.618Z,4.47
2022-10-17T14:00:56.667Z,4.32
2022-10-17T14:04:20.181Z,4.10
2022-10-17T14:07:46.190Z,4.65
2022-10-17T14:10:54.452Z,4.03
2022-10-17T14:13:57.998Z,4.47
2022-10-17T14:17:00.572Z,4.28
2022-10-17T14:20:29.686Z,4.68
2022-10-17T14:23:34.109Z,5.05
2022-10-17T14:26:50.265Z,4.15
2022-10-17T14:29:55.041Z,4.97
2022-10-17T14:33:01.433Z,4.80
2022-10-17T14:36:05.356Z,4.60
2022-10-17T14:39:18.329Z,4.50
2022-10-17T14:42:22.595Z,4.43
2022-10-17T14:45:30.815Z,4.47
2022-10-17T14:48:33.410Z,4.90
2022-10-17T14:51:50.188Z,4.78
2022-10-17T14:54:59.573Z,4.62
2022-10-17T14:58:01.789Z,4.60
2022-10-17T15:01:04.149Z,4.47
2022-10-17T15:04:10.649Z,4.62
2022-10-17T15:07:15.519Z,5.53
2022-10-17T15:10:35.157Z,5.20
2022-10-17T15:13:42.187Z,5.10
2022-10-17T15:16:46.826Z,5.15
2022-10-17T15:19:50.684Z,4.57
2022-10-17T15:22:54.668Z,5.00
2022-10-17T15:25:57.030Z,4.70
2022-10-17T15:28:59.848Z,5.47
2022-10-17T15:32:05.368Z,4.65
2022-10-17T15:35:08.399Z,5.03
2022-10-17T15:38:17.779Z,5.45
2022-10-17T15:41:20.159Z,6.28
2022-10-17T15:44:22.918Z,7.07
2022-10-17T15:47:28.122Z,8.48
2022-10-17T15:50:30.929Z,9.73
2022-10-17T15:53:33.012Z,9.15
2022-10-17T15:56:39.998Z,9.02
2022-10-17T15:59:42.194Z,9.05
2022-10-17T16:02:44.803Z,7.30
2022-10-17T16:05:49.653Z,7.28
2022-10-17T16:08:52.342Z,7.22
2022-10-17T16:11:54.860Z,6.65
2022-10-17T16:14:57.274Z,6.37
2022-10-17T16:18:01.715Z,6.62
2022-10-17T16:21:06.448Z,6.32
2022-10-17T16:24:11.919Z,7.15
2022-10-17T16:27:14.032Z,7.55
2022-10-17T16:30:17.266Z,7.40
2022-10-17T16:33:19.353Z,7.05
2022-10-17T16:36:22.657Z,6.20
2022-10-17T16:39:24.802Z,7.03
2022-10-17T16:42:27.280Z,7.03
2022-10-17T16:45:30.246Z,8.00
2022-10-17T16:48:32.610Z,8.07
2022-10-17T16:51:35.842Z,8.35
2022-10-17T16:54:38.249Z,9.43
2022-10-17T17:00:50.969Z,9.45
2022-10-17T17:03:54.084Z,9.82
2022-10-17T17:06:56.529Z,10.20
2022-10-17T17:09:58.618Z,10.05
2022-10-17T17:13:01.723Z,9.50
2022-10-17T17:16:10.299Z,9.70
2022-10-17T17:19:15.162Z,9.70
2022-10-17T17:22:17.239Z,10.43
2022-10-17T17:25:19.564Z,9.82
2022-10-17T17:28:21.734Z,10.40
2022-10-17T17:31:27.497Z,10.50
2022-10-17T17:34:29.777Z,10.25
2022-10-17T17:37:32.409Z,11.10
2022-10-17T17:40:34.803Z,9.88
2022-10-17T17:43:37.155Z,10.35
2022-10-17T17:46:39.419Z,8.98
2022-10-17T17:49:41.745Z,10.60
2022-10-17T17:52:45.540Z,9.80
2022-10-17T17:55:47.905Z,9.40
2022-10-17T17:58:55.841Z,9.70
2022-10-17T18:01:58.248Z,9.38
2022-10-17T18:05:00.629Z,9.45
2022-10-17T18:08:04.746Z,8.95
2022-10-17T18:11:07.090Z,7.80
2022-10-17T18:14:12.458Z,8.80
2022-10-17T18:17:14.839Z,8.70
2022-10-17T18:20:16.965Z,8.88
2022-10-17T18:23:19.536Z,8.52
2022-10-17T18:26:21.604Z,8.50
2022-10-17T18:29:23.899Z,8.52
2022-10-17T18:32:25.999Z,8.98
2022-10-17T18:35:28.379Z,8.45
2022-10-17T18:38:31.191Z,8.45
2022-10-17T18:41:34.004Z,8.20
2022-10-17T18:44:36.113Z,8.73
2022-10-17T18:47:38.447Z,8.73
2022-10-17T18:50:40.499Z,8.23
2022-10-17T18:53:45.915Z,9.07
2022-10-17T18:56:51.075Z,8.57
2022-10-17T18:59:53.493Z,8.95
2022-10-17T19:02:55.536Z,9.45
2022-10-17T19:06:02.602Z,9.18
2022-10-17T19:09:06.955Z,9.10
2022-10-17T19:12:09.413Z,9.20
2022-10-17T19:15:11.464Z,8.55
2022-10-17T19:18:13.801Z,9.38
2022-10-17T19:21:20.854Z,9.45
2022-10-17T19:24:26.880Z,9.05
2022-10-17T19:27:29.254Z,8.55
2022-10-17T19:30:31.918Z,8.98
2022-10-17T19:33:34.571Z,9.40
2022-10-17T19:36:37.634Z,8.23
2022-10-17T19:39:39.818Z,9.05
2022-10-17T19:42:42.162Z,9.80
2022-10-17T19:45:44.261Z,8.45
2022-10-17T19:48:46.843Z,9.82
2022-10-17T19:51:48.975Z,9.43
2022-10-17T19:54:51.370Z,9.40
2022-10-17T19:57:53.583Z,9.80
2022-10-17T20:00:58.514Z,9.50
2022-10-17T20:04:01.080Z,9.98
2022-10-17T20:07:03.507Z,10.82
2022-10-17T20:10:06.952Z,9.75
2022-10-17T20:13:09.774Z,10.25
2022-10-17T20:16:16.012Z,10.70
2022-10-17T20:19:19.095Z,9.82
2022-10-17T20:22:21.477Z,9.68
2022-10-17T20:25:23.611Z,10.60
2022-10-17T20:28:27.412Z,10.45
2022-10-17T20:31:29.915Z,10.50
2022-10-17T20:34:35.438Z,10.35
2022-10-17T20:37:41.581Z,10.23
2022-10-17T20:40:45.399Z,10.60
2022-10-17T20:43:51.290Z,10.15
2022-10-17T20:47:01.714Z,9.85
2022-10-17T20:50:05.002Z,10.63
2022-10-17T20:53:34.985Z,10.25
2022-10-17T20:56:31.497Z,10.75
2022-10-17T20:59:35.989Z,10.98
2022-10-17T21:02:38.065Z,10.70
2022-10-17T21:05:40.855Z,10.75
2022-10-17T21:08:43.853Z,11.00
2022-10-17T21:11:46.332Z,11.38
2022-10-17T21:14:48.425Z,10.93
2022-10-17T21:17:50.801Z,11.25
2022-10-17T21:20:52.875Z,10.32
2022-10-17T21:23:58.682Z,10.45
2022-10-17T21:27:00.825Z,10.32
2022-10-17T21:30:04.053Z,10.82
2022-10-17T21:33:06.156Z,10.45
2022-10-17T21:36:09.700Z,11.20
2022-10-17T21:39:13.014Z,10.85
2022-10-17T21:42:15.391Z,10.80
2022-10-17T21:45:25.297Z,10.73
2022-10-17T21:48:28.344Z,11.85
2022-10-17T21:51:30.425Z,12.05
2022-10-17T21:54:32.822Z,11.63
2022-10-17T21:57:34.899Z,11.38
2022-10-17T22:00:37.237Z,11.82
2022-10-17T22:03:45.673Z,11.90
2022-10-17T22:06:51.154Z,12.68
2022-10-17T22:09:53.707Z,13.90
2022-10-17T22:12:55.782Z,14.55
2022-10-17T22:16:02.315Z,13.93
2022-10-17T22:19:06.731Z,14.85
2022-10-17T22:22:09.411Z,14.95
2022-10-17T22:25:11.559Z,14.75
2022-10-17T22:28:13.905Z,14.00
2022-10-17T22:31:15.951Z,14.18
2022-10-17T22:34:18.615Z,13.38
2022-10-17T22:37:20.915Z,14.30
2022-10-17T22:40:23.257Z,14.20
2022-10-17T22:43:25.679Z,14.00
2022-10-17T22:46:28.351Z,13.00
2022-10-17T22:49:30.452Z,13.45
2022-10-17T22:52:33.027Z,12.18
2022-10-17T22:55:35.397Z,13.43
2022-10-17T22:58:38.431Z,12.35
2022-10-17T23:01:40.645Z,13.18
2022-10-17T23:04:43.021Z,13.27
2022-10-17T23:07:45.142Z,13.80
2022-10-17T23:10:48.257Z,13.38
2022-10-17T23:13:50.425Z,13.88
2022-10-17T23:16:52.790Z,12.60
2022-10-17T23:19:57.027Z,12.88
2022-10-17T23:23:00.102Z,13.27
2022-10-17T23:26:11.141Z,12.57
2022-10-17T23:29:13.483Z,12.55
2022-10-17T23:32:15.560Z,12.20
2022-10-17T23:35:17.960Z,12.98
2022-10-17T23:38:20.120Z,11.70
2022-10-17T23:41:22.479Z,11.73
2022-10-17T23:44:24.607Z,12.55
2022-10-17T23:47:26.977Z,12.37
2022-10-17T23:50:29.055Z,11.77
2022-10-17T23:53:31.590Z,12.18
2022-10-17T23:56:33.664Z,11.75
2022-10-17T23:59:36.231Z,11.85
